<?xml version="1.0" encoding="utf-8"?>
<gpx xmlns:xsi="http://www.w3.org/2001/XMLSchema-instance" xmlns:xsd="http://www.w3.org/2001/XMLSchema" version="1.1" creator="Shapelink.com" xmlns="http://www.topografix.com/GPX/1/1" xmlns:gpxtpx="http://www.garmin.com/xmlschemas/TrackPointExtension/v1">
  <metadata>
    <name>Övrigt 2.70 km, 2020-06-03</name>
    <desc></desc>
    <author><name>Marian Moron</name></author> 
    <time>2020-06-03T19:40:06Z</time>
  </metadata>
  <trk>
    <name>Övrigt 2.70 km, 2020-06-03</name>
    <trkseg>
      <trkpt lat="51.229784634211" lon="4.458443753994">
        <ele>0</ele>
        <time>2020-06-03T19:40:06Z</time>
      </trkpt>
      <trkpt lat="51.229980100119" lon="4.459091758683">
        <ele>0</ele>
        <time>2020-06-03T19:40:41Z</time>
      </trkpt>
      <trkpt lat="51.23011328851" lon="4.4591456543">
        <ele>6.2</ele>
        <time>2020-06-03T19:40:59Z</time>
      </trkpt>
      <trkpt lat="51.230245638711" lon="4.459039120351">
        <ele>0.6</ele>
        <time>2020-06-03T19:41:13Z</time>
      </trkpt>
      <trkpt lat="51.230529114569" lon="4.458979357404">
        <ele>0</ele>
        <time>2020-06-03T19:41:37Z</time>
      </trkpt>
      <trkpt lat="51.230547554749" lon="4.459325697512">
        <ele>0</ele>
        <time>2020-06-03T19:41:56Z</time>
      </trkpt>
      <trkpt lat="51.230526013266" lon="4.459395686377">
        <ele>0</ele>
        <time>2020-06-03T19:42:09Z</time>
      </trkpt>
      <trkpt lat="51.230505729068" lon="4.459446732148">
        <ele>0</ele>
        <time>2020-06-03T19:42:12Z</time>
      </trkpt>
      <trkpt lat="51.230499358824" lon="4.459481517033">
        <ele>0</ele>
        <time>2020-06-03T19:42:14Z</time>
      </trkpt>
      <trkpt lat="51.230505896706" lon="4.459515212271">
        <ele>0</ele>
        <time>2020-06-03T19:42:16Z</time>
      </trkpt>
      <trkpt lat="51.230533389338" lon="4.45964102459">
        <ele>0</ele>
        <time>2020-06-03T19:42:30Z</time>
      </trkpt>
      <trkpt lat="51.230568341861" lon="4.459777984836">
        <ele>0</ele>
        <time>2020-06-03T19:42:42Z</time>
      </trkpt>
      <trkpt lat="51.231005206489" lon="4.459581680738">
        <ele>0</ele>
        <time>2020-06-03T19:43:21Z</time>
      </trkpt>
      <trkpt lat="51.231226069554" lon="4.459615292157">
        <ele>0</ele>
        <time>2020-06-03T19:43:41Z</time>
      </trkpt>
      <trkpt lat="51.231619096845" lon="4.459654519449">
        <ele>1.4</ele>
        <time>2020-06-03T19:44:05Z</time>
      </trkpt>
      <trkpt lat="51.231687660787" lon="4.45956726387">
        <ele>1</ele>
        <time>2020-06-03T19:44:12Z</time>
      </trkpt>
      <trkpt lat="51.231805175025" lon="4.459708415066">
        <ele>0.6</ele>
        <time>2020-06-03T19:44:25Z</time>
      </trkpt>
      <trkpt lat="51.23182571068" lon="4.459827438046">
        <ele>2.2</ele>
        <time>2020-06-03T19:44:50Z</time>
      </trkpt>
      <trkpt lat="51.231918163037" lon="4.460527410515">
        <ele>1.2</ele>
        <time>2020-06-03T19:45:21Z</time>
      </trkpt>
      <trkpt lat="51.231927299308" lon="4.460604440176">
        <ele>2.2</ele>
        <time>2020-06-03T19:45:24Z</time>
      </trkpt>
      <trkpt lat="51.232056883482" lon="4.461297790944">
        <ele>0.6</ele>
        <time>2020-06-03T19:45:57Z</time>
      </trkpt>
      <trkpt lat="51.232067277038" lon="4.461396026812">
        <ele>2.2</ele>
        <time>2020-06-03T19:46:06Z</time>
      </trkpt>
      <trkpt lat="51.232106839606" lon="4.461550002315">
        <ele>5.8</ele>
        <time>2020-06-03T19:46:14Z</time>
      </trkpt>
      <trkpt lat="51.232119496275" lon="4.461585038657">
        <ele>6.4</ele>
        <time>2020-06-03T19:46:16Z</time>
      </trkpt>
      <trkpt lat="51.232209517881" lon="4.461609849081">
        <ele>10.2</ele>
        <time>2020-06-03T19:46:24Z</time>
      </trkpt>
      <trkpt lat="51.232492742282" lon="4.461544889356">
        <ele>8</ele>
        <time>2020-06-03T19:46:44Z</time>
      </trkpt>
      <trkpt lat="51.232500118354" lon="4.461579925698">
        <ele>7.4</ele>
        <time>2020-06-03T19:46:46Z</time>
      </trkpt>
      <trkpt lat="51.232596510204" lon="4.461790646664">
        <ele>3.4</ele>
        <time>2020-06-03T19:46:59Z</time>
      </trkpt>
      <trkpt lat="51.232748138775" lon="4.461907993264">
        <ele>0</ele>
        <time>2020-06-03T19:47:15Z</time>
      </trkpt>
      <trkpt lat="51.232889122333" lon="4.46191000492">
        <ele>0.2</ele>
        <time>2020-06-03T19:47:26Z</time>
      </trkpt>
      <trkpt lat="51.232923823399" lon="4.461887625247">
        <ele>0.4</ele>
        <time>2020-06-03T19:47:31Z</time>
      </trkpt>
      <trkpt lat="51.233057598523" lon="4.461806739912">
        <ele>2.2</ele>
        <time>2020-06-03T19:47:41Z</time>
      </trkpt>
      <trkpt lat="51.233102609326" lon="4.461918303001">
        <ele>1.4</ele>
        <time>2020-06-03T19:47:46Z</time>
      </trkpt>
      <trkpt lat="51.2331316107" lon="4.462201108307">
        <ele>0</ele>
        <time>2020-06-03T19:48:05Z</time>
      </trkpt>
      <trkpt lat="51.233232947871" lon="4.462659430599">
        <ele>0</ele>
        <time>2020-06-03T19:48:39Z</time>
      </trkpt>
      <trkpt lat="51.233264631453" lon="4.462936955308">
        <ele>0</ele>
        <time>2020-06-03T19:48:58Z</time>
      </trkpt>
      <trkpt lat="51.233289609515" lon="4.463115825054">
        <ele>0</ele>
        <time>2020-06-03T19:49:06Z</time>
      </trkpt>
      <trkpt lat="51.23333193811" lon="4.463305423632">
        <ele>0</ele>
        <time>2020-06-03T19:49:26Z</time>
      </trkpt>
      <trkpt lat="51.233402178432" lon="4.463985279541">
        <ele>0</ele>
        <time>2020-06-03T19:50:03Z</time>
      </trkpt>
      <trkpt lat="51.233242167961" lon="4.464291973262">
        <ele>0</ele>
        <time>2020-06-03T19:50:24Z</time>
      </trkpt>
      <trkpt lat="51.233287933135" lon="4.464508226282">
        <ele>0</ele>
        <time>2020-06-03T19:50:34Z</time>
      </trkpt>
      <trkpt lat="51.233230265663" lon="4.464683240354">
        <ele>0</ele>
        <time>2020-06-03T19:50:47Z</time>
      </trkpt>
      <trkpt lat="51.232976294093" lon="4.465295789606">
        <ele>0</ele>
        <time>2020-06-03T19:51:20Z</time>
      </trkpt>
      <trkpt lat="51.232809242826" lon="4.465593095599">
        <ele>0</ele>
        <time>2020-06-03T19:51:44Z</time>
      </trkpt>
      <trkpt lat="51.232514786679" lon="4.466149653759">
        <ele>10.2</ele>
        <time>2020-06-03T19:52:20Z</time>
      </trkpt>
      <trkpt lat="51.232252181752" lon="4.466707217747">
        <ele>6.4</ele>
        <time>2020-06-03T19:53:00Z</time>
      </trkpt>
      <trkpt lat="51.232210691347" lon="4.466790030919">
        <ele>7.2</ele>
        <time>2020-06-03T19:53:10Z</time>
      </trkpt>
      <trkpt lat="51.232080185164" lon="4.467152631913">
        <ele>0</ele>
        <time>2020-06-03T19:53:27Z</time>
      </trkpt>
      <trkpt lat="51.232051435247" lon="4.467151123171">
        <ele>0</ele>
        <time>2020-06-03T19:53:29Z</time>
      </trkpt>
      <trkpt lat="51.231664526743" lon="4.46718808735">
        <ele>0</ele>
        <time>2020-06-03T19:53:59Z</time>
      </trkpt>
      <trkpt lat="51.231657402128" lon="4.467113907535">
        <ele>0</ele>
        <time>2020-06-03T19:54:05Z</time>
      </trkpt>
      <trkpt lat="51.231342326507" lon="4.466864965105">
        <ele>0</ele>
        <time>2020-06-03T19:54:33Z</time>
      </trkpt>
      <trkpt lat="51.231335453349" lon="4.46683604755">
        <ele>0</ele>
        <time>2020-06-03T19:54:36Z</time>
      </trkpt>
      <trkpt lat="51.231353893529" lon="4.466729765058">
        <ele>0</ele>
        <time>2020-06-03T19:54:46Z</time>
      </trkpt>
      <trkpt lat="51.231252304901" lon="4.466552487873">
        <ele>0.6</ele>
        <time>2020-06-03T19:55:21Z</time>
      </trkpt>
      <trkpt lat="51.231109393506" lon="4.466423574251">
        <ele>1.8</ele>
        <time>2020-06-03T19:55:40Z</time>
      </trkpt>
      <trkpt lat="51.230950556501" lon="4.466429273943">
        <ele>5</ele>
        <time>2020-06-03T19:56:11Z</time>
      </trkpt>
      <trkpt lat="51.230689376497" lon="4.466175386192">
        <ele>0</ele>
        <time>2020-06-03T19:56:42Z</time>
      </trkpt>
      <trkpt lat="51.230737153327" lon="4.46591571493">
        <ele>3.6</ele>
        <time>2020-06-03T19:57:05Z</time>
      </trkpt>
      <trkpt lat="51.230725586305" lon="4.465368041584">
        <ele>0</ele>
        <time>2020-06-03T19:57:45Z</time>
      </trkpt>
      <trkpt lat="51.230675881638" lon="4.465080710052">
        <ele>0</ele>
        <time>2020-06-03T19:58:20Z</time>
      </trkpt>
      <trkpt lat="51.230665571901" lon="4.464986916591">
        <ele>0</ele>
        <time>2020-06-03T19:58:29Z</time>
      </trkpt>
      <trkpt lat="51.230667164462" lon="4.464891362931">
        <ele>0</ele>
        <time>2020-06-03T19:58:55Z</time>
      </trkpt>
      <trkpt lat="51.230535820089" lon="4.464371936588">
        <ele>0</ele>
        <time>2020-06-03T19:59:33Z</time>
      </trkpt>
      <trkpt lat="51.230486366879" lon="4.46424520226">
        <ele>0</ele>
        <time>2020-06-03T19:59:44Z</time>
      </trkpt>
      <trkpt lat="51.230396429092" lon="4.463967342275">
        <ele>1.8</ele>
        <time>2020-06-03T20:00:11Z</time>
      </trkpt>
      <trkpt lat="51.230380252025" lon="4.463901125265">
        <ele>4.2</ele>
        <time>2020-06-03T20:00:20Z</time>
      </trkpt>
      <trkpt lat="51.230278579578" lon="4.463905986767">
        <ele>4.2</ele>
        <time>2020-06-03T20:00:35Z</time>
      </trkpt>
      <trkpt lat="51.230220995925" lon="4.463970611216">
        <ele>3.8</ele>
        <time>2020-06-03T20:00:44Z</time>
      </trkpt>
      <trkpt lat="51.229871805971" lon="4.464188624435">
        <ele>3</ele>
        <time>2020-06-03T20:01:57Z</time>
      </trkpt>
      <trkpt lat="51.229790333903" lon="4.464137830121">
        <ele>9.4</ele>
        <time>2020-06-03T20:02:11Z</time>
      </trkpt>
      <trkpt lat="51.229339387683" lon="4.464340253006">
        <ele>2.6</ele>
        <time>2020-06-03T20:03:05Z</time>
      </trkpt>
      <trkpt lat="51.229292951957" lon="4.464335391504">
        <ele>1.8</ele>
        <time>2020-06-03T20:03:10Z</time>
      </trkpt>
      <trkpt lat="51.229211312251" lon="4.464323321568">
        <ele>0</ele>
        <time>2020-06-03T20:03:22Z</time>
      </trkpt>
      <trkpt lat="51.229079045869" lon="4.464124167624">
        <ele>0</ele>
        <time>2020-06-03T20:03:52Z</time>
      </trkpt>
      <trkpt lat="51.22908818214" lon="4.464176219223">
        <ele>0</ele>
        <time>2020-06-03T20:04:00Z</time>
      </trkpt>
      <trkpt lat="51.228923813081" lon="4.46438182723">
        <ele>0</ele>
        <time>2020-06-03T20:04:22Z</time>
      </trkpt>
      <trkpt lat="51.228711499554" lon="4.464638983922">
        <ele>4.2</ele>
        <time>2020-06-03T20:05:28Z</time>
      </trkpt>
      <trkpt lat="51.228733460132" lon="4.465131001452">
        <ele>0</ele>
        <time>2020-06-03T20:06:28Z</time>
      </trkpt>
      <trkpt lat="51.228734549779" lon="4.465175006427">
        <ele>0</ele>
        <time>2020-06-03T20:06:31Z</time>
      </trkpt>
      <trkpt lat="51.228569929263" lon="4.465827788799">
        <ele>0</ele>
        <time>2020-06-03T20:07:18Z</time>
      </trkpt>
      <trkpt lat="51.228183942768" lon="4.466222827746">
        <ele>0</ele>
        <time>2020-06-03T20:08:04Z</time>
      </trkpt>
      <trkpt lat="51.228043629762" lon="4.466345371124">
        <ele>0</ele>
        <time>2020-06-03T20:08:19Z</time>
      </trkpt>
      <trkpt lat="51.227925193515" lon="4.466252332034">
        <ele>0</ele>
        <time>2020-06-03T20:08:31Z</time>
      </trkpt>
      <trkpt lat="51.227904741679" lon="4.466170021776">
        <ele>0</ele>
        <time>2020-06-03T20:08:37Z</time>
      </trkpt>
      <trkpt lat="51.227888564612" lon="4.466123669869">
        <ele>0</ele>
        <time>2020-06-03T20:08:40Z</time>
      </trkpt>
      <trkpt lat="51.227849504958" lon="4.466073713745">
        <ele>0</ele>
        <time>2020-06-03T20:08:45Z</time>
      </trkpt>
      <trkpt lat="51.227825448905" lon="4.465658977333">
        <ele>0</ele>
        <time>2020-06-03T20:09:10Z</time>
      </trkpt>
      <trkpt lat="51.227808098372" lon="4.4651806223">
        <ele>0</ele>
        <time>2020-06-03T20:09:38Z</time>
      </trkpt>
      <trkpt lat="51.227786389251" lon="4.46505321742">
        <ele>0</ele>
        <time>2020-06-03T20:09:48Z</time>
      </trkpt>
      <trkpt lat="51.22776970927" lon="4.464548040307">
        <ele>0</ele>
        <time>2020-06-03T20:10:17Z</time>
      </trkpt>
      <trkpt lat="51.227743306285" lon="4.463831052581">
        <ele>0</ele>
        <time>2020-06-03T20:10:58Z</time>
      </trkpt>
      <trkpt lat="51.227673987972" lon="4.463110376819">
        <ele>0</ele>
        <time>2020-06-03T20:11:34Z</time>
      </trkpt>
      <trkpt lat="51.22755429444" lon="4.462638727306">
        <ele>0</ele>
        <time>2020-06-03T20:12:05Z</time>
      </trkpt>
      <trkpt lat="51.227467541775" lon="4.462199515746">
        <ele>0.2</ele>
        <time>2020-06-03T20:12:43Z</time>
      </trkpt>
      <trkpt lat="51.227320355611" lon="4.461566430839">
        <ele>0</ele>
        <time>2020-06-03T20:13:39Z</time>
      </trkpt>
      <trkpt lat="51.227364695862" lon="4.460990091395">
        <ele>0.2</ele>
        <time>2020-06-03T20:15:03Z</time>
      </trkpt>
      <trkpt lat="51.227370144097" lon="4.460951199379">
        <ele>1.2</ele>
        <time>2020-06-03T20:15:05Z</time>
      </trkpt>
      <trkpt lat="51.22751825227" lon="4.460736455101">
        <ele>13</ele>
        <time>2020-06-03T20:15:25Z</time>
      </trkpt>
      <trkpt lat="51.22794237641" lon="4.460509976163">
        <ele>18</ele>
        <time>2020-06-03T20:16:13Z</time>
      </trkpt>
      <trkpt lat="51.228293913296" lon="4.460103118737">
        <ele>13.6</ele>
        <time>2020-06-03T20:16:47Z</time>
      </trkpt>
      <trkpt lat="51.228338672642" lon="4.459659883865">
        <ele>0</ele>
        <time>2020-06-03T20:17:16Z</time>
      </trkpt>
      <trkpt lat="51.228494073068" lon="4.458973154798">
        <ele>0</ele>
        <time>2020-06-03T20:18:02Z</time>
      </trkpt>
      <trkpt lat="51.228501700597" lon="4.458816413268">
        <ele>0</ele>
        <time>2020-06-03T20:18:18Z</time>
      </trkpt>
      <trkpt lat="51.228485439711" lon="4.458274104338">
        <ele>0</ele>
        <time>2020-06-03T20:18:51Z</time>
      </trkpt>
      <trkpt lat="51.228481500218" lon="4.458174359728">
        <ele>0</ele>
        <time>2020-06-03T20:18:59Z</time>
      </trkpt>
      <trkpt lat="51.228451828292" lon="4.457761886429">
        <ele>0.4</ele>
        <time>2020-06-03T20:19:26Z</time>
      </trkpt>
      <trkpt lat="51.228458366174" lon="4.457637499033">
        <ele>0.6</ele>
        <time>2020-06-03T20:19:35Z</time>
      </trkpt>
      <trkpt lat="51.228565403037" lon="4.457789379061">
        <ele>1</ele>
        <time>2020-06-03T20:19:57Z</time>
      </trkpt>
      <trkpt lat="51.228674451556" lon="4.458192213175">
        <ele>5</ele>
        <time>2020-06-03T20:20:46Z</time>
      </trkpt>
      <trkpt lat="51.229010649565" lon="4.458105628148">
        <ele>10</ele>
        <time>2020-06-03T20:21:25Z</time>
      </trkpt>
      <trkpt lat="51.229440724854" lon="4.45794788079">
        <ele>5.8</ele>
        <time>2020-06-03T20:22:50Z</time>
      </trkpt>
    </trkseg>
  </trk>
</gpx>